sensor_id;sensor_type;location;lat;lon;timestamp;P1;durP1;ratioP1;P2;durP2;ratioP2
23712;SDS011;12035;49.978;8.298;2023-04-06T00:00:47;7.32;;;2.92;;
23712;SDS011;12035;49.978;8.298;2023-04-06T00:05:49;4.30;;;2.58;;
23712;SDS011;12035;49.978;8.298;2023-04-06T00:10:46;5.25;;;2.78;;
23712;SDS011;12035;49.978;8.298;2023-04-06T00:15:44;5.90;;;2.80;;
23712;SDS011;12035;49.978;8.298;2023-04-06T00:20:41;6.78;;;2.70;;
23712;SDS011;12035;49.978;8.298;2023-04-06T00:25:39;5.28;;;2.75;;
23712;SDS011;12035;49.978;8.298;2023-04-06T00:30:36;5.80;;;3.03;;
23712;SDS011;12035;49.978;8.298;2023-04-06T00:35:33;6.90;;;3.13;;
23712;SDS011;12035;49.978;8.298;2023-04-06T00:40:31;7.28;;;3.20;;
23712;SDS011;12035;49.978;8.298;2023-04-06T00:45:31;5.25;;;2.80;;
23712;SDS011;12035;49.978;8.298;2023-04-06T00:50:28;6.22;;;2.60;;
23712;SDS011;12035;49.978;8.298;2023-04-06T00:55:26;5.60;;;3.33;;
23712;SDS011;12035;49.978;8.298;2023-04-06T01:00:25;5.53;;;2.80;;
23712;SDS011;12035;49.978;8.298;2023-04-06T01:05:23;6.65;;;3.35;;
23712;SDS011;12035;49.978;8.298;2023-04-06T01:10:24;4.93;;;2.85;;
23712;SDS011;12035;49.978;8.298;2023-04-06T01:15:21;8.93;;;3.85;;
23712;SDS011;12035;49.978;8.298;2023-04-06T01:20:18;4.88;;;2.90;;
23712;SDS011;12035;49.978;8.298;2023-04-06T01:25:17;5.80;;;2.78;;
23712;SDS011;12035;49.978;8.298;2023-04-06T01:30:15;7.13;;;3.10;;
23712;SDS011;12035;49.978;8.298;2023-04-06T01:35:12;5.15;;;2.30;;
23712;SDS011;12035;49.978;8.298;2023-04-06T01:40:10;5.05;;;2.92;;
23712;SDS011;12035;49.978;8.298;2023-04-06T01:45:10;6.78;;;2.97;;
23712;SDS011;12035;49.978;8.298;2023-04-06T01:50:07;6.57;;;3.08;;
23712;SDS011;12035;49.978;8.298;2023-04-06T01:55:05;5.25;;;2.78;;
23712;SDS011;12035;49.978;8.298;2023-04-06T02:00:03;4.78;;;2.90;;
23712;SDS011;12035;49.978;8.298;2023-04-06T02:05:04;3.70;;;2.47;;
23712;SDS011;12035;49.978;8.298;2023-04-06T02:10:02;8.95;;;3.33;;
23712;SDS011;12035;49.978;8.298;2023-04-06T02:15:01;8.85;;;3.85;;
23712;SDS011;12035;49.978;8.298;2023-04-06T02:19:58;5.50;;;3.22;;
23712;SDS011;12035;49.978;8.298;2023-04-06T02:24:56;7.05;;;3.58;;
23712;SDS011;12035;49.978;8.298;2023-04-06T02:29:54;7.05;;;3.25;;
23712;SDS011;12035;49.978;8.298;2023-04-06T02:34:51;5.60;;;3.42;;
23712;SDS011;12035;49.978;8.298;2023-04-06T02:39:48;6.07;;;3.53;;
23712;SDS011;12035;49.978;8.298;2023-04-06T02:44:47;5.22;;;2.83;;
23712;SDS011;12035;49.978;8.298;2023-04-06T02:49:44;7.55;;;3.88;;
23712;SDS011;12035;49.978;8.298;2023-04-06T02:54:41;6.22;;;3.40;;
23712;SDS011;12035;49.978;8.298;2023-04-06T02:59:39;8.18;;;4.20;;
23712;SDS011;12035;49.978;8.298;2023-04-06T03:04:37;7.47;;;3.88;;
23712;SDS011;12035;49.978;8.298;2023-04-06T03:09:36;9.02;;;4.03;;
23712;SDS011;12035;49.978;8.298;2023-04-06T03:14:34;6.78;;;3.50;;
23712;SDS011;12035;49.978;8.298;2023-04-06T03:19:31;7.00;;;4.20;;
23712;SDS011;12035;49.978;8.298;2023-04-06T03:24:29;7.07;;;4.03;;
23712;SDS011;12035;49.978;8.298;2023-04-06T03:29:26;7.10;;;3.50;;
23712;SDS011;12035;49.978;8.298;2023-04-06T03:34:23;6.03;;;3.10;;
23712;SDS011;12035;49.978;8.298;2023-04-06T03:44:19;6.73;;;3.83;;
23712;SDS011;12035;49.978;8.298;2023-04-06T03:49:16;7.20;;;4.28;;
23712;SDS011;12035;49.978;8.298;2023-04-06T03:54:13;8.13;;;3.80;;
23712;SDS011;12035;49.978;8.298;2023-04-06T03:59:10;6.50;;;4.18;;
23712;SDS011;12035;49.978;8.298;2023-04-06T04:04:11;7.88;;;4.15;;
23712;SDS011;12035;49.978;8.298;2023-04-06T04:09:08;7.05;;;3.83;;
23712;SDS011;12035;49.978;8.298;2023-04-06T04:14:05;5.78;;;3.50;;
23712;SDS011;12035;49.978;8.298;2023-04-06T04:19:02;9.75;;;4.25;;
23712;SDS011;12035;49.978;8.298;2023-04-06T04:24:00;6.18;;;4.13;;
23712;SDS011;12035;49.978;8.298;2023-04-06T04:28:57;8.35;;;4.50;;
23712;SDS011;12035;49.978;8.298;2023-04-06T04:33:55;7.03;;;3.78;;
23712;SDS011;12035;49.978;8.298;2023-04-06T04:38:52;6.53;;;4.00;;
23712;SDS011;12035;49.978;8.298;2023-04-06T04:43:50;6.22;;;3.17;;
23712;SDS011;12035;49.978;8.298;2023-04-06T04:48:47;8.70;;;3.60;;
23712;SDS011;12035;49.978;8.298;2023-04-06T04:53:45;5.95;;;3.83;;
23712;SDS011;12035;49.978;8.298;2023-04-06T04:58:42;8.07;;;4.05;;
23712;SDS011;12035;49.978;8.298;2023-04-06T05:03:40;7.68;;;4.25;;
23712;SDS011;12035;49.978;8.298;2023-04-06T05:08:37;8.30;;;4.22;;
23712;SDS011;12035;49.978;8.298;2023-04-06T05:13:34;9.52;;;4.45;;
23712;SDS011;12035;49.978;8.298;2023-04-06T05:18:31;8.15;;;4.00;;
23712;SDS011;12035;49.978;8.298;2023-04-06T05:23:30;8.77;;;3.80;;
23712;SDS011;12035;49.978;8.298;2023-04-06T05:28:27;7.03;;;3.42;;
23712;SDS011;12035;49.978;8.298;2023-04-06T05:33:25;6.00;;;2.95;;
23712;SDS011;12035;49.978;8.298;2023-04-06T05:38:22;6.38;;;2.90;;
23712;SDS011;12035;49.978;8.298;2023-04-06T05:48:18;6.70;;;3.08;;
23712;SDS011;12035;49.978;8.298;2023-04-06T05:53:15;5.65;;;3.03;;
23712;SDS011;12035;49.978;8.298;2023-04-06T05:58:13;9.95;;;3.58;;
23712;SDS011;12035;49.978;8.298;2023-04-06T06:03:11;10.77;;;4.18;;
23712;SDS011;12035;49.978;8.298;2023-04-06T06:08:10;8.07;;;3.95;;
23712;SDS011;12035;49.978;8.298;2023-04-06T06:13:11;7.43;;;3.50;;
23712;SDS011;12035;49.978;8.298;2023-04-06T06:18:09;7.35;;;3.95;;
23712;SDS011;12035;49.978;8.298;2023-04-06T06:23:07;5.55;;;4.25;;
23712;SDS011;12035;49.978;8.298;2023-04-06T06:28:05;6.13;;;3.65;;
23712;SDS011;12035;49.978;8.298;2023-04-06T06:33:02;6.20;;;4.15;;
23712;SDS011;12035;49.978;8.298;2023-04-06T06:38:00;6.20;;;4.13;;
23712;SDS011;12035;49.978;8.298;2023-04-06T06:42:57;6.57;;;4.72;;
23712;SDS011;12035;49.978;8.298;2023-04-06T06:47:54;6.97;;;4.50;;
23712;SDS011;12035;49.978;8.298;2023-04-06T06:52:51;7.30;;;4.50;;
23712;SDS011;12035;49.978;8.298;2023-04-06T06:57:50;7.55;;;4.50;;
23712;SDS011;12035;49.978;8.298;2023-04-06T07:02:47;9.90;;;4.90;;
23712;SDS011;12035;49.978;8.298;2023-04-06T07:07:44;8.38;;;5.10;;
23712;SDS011;12035;49.978;8.298;2023-04-06T07:12:41;6.97;;;4.55;;
23712;SDS011;12035;49.978;8.298;2023-04-06T07:17:40;8.18;;;4.50;;
23712;SDS011;12035;49.978;8.298;2023-04-06T07:22:38;7.43;;;3.78;;
23712;SDS011;12035;49.978;8.298;2023-04-06T07:27:36;6.28;;;4.55;;
23712;SDS011;12035;49.978;8.298;2023-04-06T07:32:33;7.97;;;4.72;;
23712;SDS011;12035;49.978;8.298;2023-04-06T07:37:32;6.60;;;4.45;;
23712;SDS011;12035;49.978;8.298;2023-04-06T07:42:30;8.57;;;4.47;;
23712;SDS011;12035;49.978;8.298;2023-04-06T07:47:28;7.80;;;4.95;;
23712;SDS011;12035;49.978;8.298;2023-04-06T07:52:25;9.48;;;5.45;;
23712;SDS011;12035;49.978;8.298;2023-04-06T07:57:23;10.85;;;5.95;;
23712;SDS011;12035;49.978;8.298;2023-04-06T08:02:20;9.80;;;5.22;;
23712;SDS011;12035;49.978;8.298;2023-04-06T08:07:17;10.45;;;4.60;;
23712;SDS011;12035;49.978;8.298;2023-04-06T08:12:14;13.05;;;5.50;;
23712;SDS011;12035;49.978;8.298;2023-04-06T08:17:13;11.05;;;5.70;;
23712;SDS011;12035;49.978;8.298;2023-04-06T08:22:10;8.73;;;4.50;;
23712;SDS011;12035;49.978;8.298;2023-04-06T08:27:08;10.45;;;4.70;;
23712;SDS011;12035;49.978;8.298;2023-04-06T08:32:05;10.05;;;5.20;;
23712;SDS011;12035;49.978;8.298;2023-04-06T08:37:03;8.90;;;4.97;;
23712;SDS011;12035;49.978;8.298;2023-04-06T08:42:01;8.13;;;5.03;;
23712;SDS011;12035;49.978;8.298;2023-04-06T08:46:59;8.27;;;5.32;;
23712;SDS011;12035;49.978;8.298;2023-04-06T08:51:56;8.40;;;5.28;;
23712;SDS011;12035;49.978;8.298;2023-04-06T08:56:56;6.90;;;5.07;;
23712;SDS011;12035;49.978;8.298;2023-04-06T09:01:54;7.20;;;5.00;;
23712;SDS011;12035;49.978;8.298;2023-04-06T09:06:52;7.90;;;5.15;;
23712;SDS011;12035;49.978;8.298;2023-04-06T09:11:50;7.78;;;5.25;;
23712;SDS011;12035;49.978;8.298;2023-04-06T09:16:50;7.93;;;4.97;;
23712;SDS011;12035;49.978;8.298;2023-04-06T09:21:46;6.90;;;4.90;;
23712;SDS011;12035;49.978;8.298;2023-04-06T09:26:44;7.03;;;5.20;;
23712;SDS011;12035;49.978;8.298;2023-04-06T09:31:42;10.48;;;6.07;;
23712;SDS011;12035;49.978;8.298;2023-04-06T09:36:41;10.38;;;5.80;;
23712;SDS011;12035;49.978;8.298;2023-04-06T09:41:38;11.82;;;5.45;;
23712;SDS011;12035;49.978;8.298;2023-04-06T09:46:36;7.20;;;5.13;;
23712;SDS011;12035;49.978;8.298;2023-04-06T09:51:36;10.82;;;5.72;;
23712;SDS011;12035;49.978;8.298;2023-04-06T09:56:39;8.38;;;5.50;;
23712;SDS011;12035;49.978;8.298;2023-04-06T10:01:42;8.35;;;5.85;;
23712;SDS011;12035;49.978;8.298;2023-04-06T10:06:41;10.52;;;5.80;;
23712;SDS011;12035;49.978;8.298;2023-04-06T10:11:41;11.13;;;6.38;;
23712;SDS011;12035;49.978;8.298;2023-04-06T10:16:39;9.38;;;6.43;;
23712;SDS011;12035;49.978;8.298;2023-04-06T10:21:36;10.40;;;7.05;;
23712;SDS011;12035;49.978;8.298;2023-04-06T10:26:35;11.82;;;6.30;;
23712;SDS011;12035;49.978;8.298;2023-04-06T10:31:38;14.52;;;7.40;;
23712;SDS011;12035;49.978;8.298;2023-04-06T10:36:39;14.20;;;7.60;;
23712;SDS011;12035;49.978;8.298;2023-04-06T10:41:41;9.40;;;6.25;;
23712;SDS011;12035;49.978;8.298;2023-04-06T10:46:41;11.25;;;6.93;;
23712;SDS011;12035;49.978;8.298;2023-04-06T10:51:51;10.70;;;5.43;;
23712;SDS011;12035;49.978;8.298;2023-04-06T10:56:50;10.70;;;7.28;;
23712;SDS011;12035;49.978;8.298;2023-04-06T11:01:48;11.68;;;7.07;;
23712;SDS011;12035;49.978;8.298;2023-04-06T11:06:46;12.07;;;7.38;;
23712;SDS011;12035;49.978;8.298;2023-04-06T11:11:44;11.10;;;7.32;;
23712;SDS011;12035;49.978;8.298;2023-04-06T11:16:41;11.20;;;6.57;;
23712;SDS011;12035;49.978;8.298;2023-04-06T11:21:40;9.27;;;6.13;;
23712;SDS011;12035;49.978;8.298;2023-04-06T11:26:43;13.93;;;6.93;;
23712;SDS011;12035;49.978;8.298;2023-04-06T11:31:44;11.63;;;7.40;;
23712;SDS011;12035;49.978;8.298;2023-04-06T11:36:46;11.50;;;6.97;;
23712;SDS011;12035;49.978;8.298;2023-04-06T11:41:47;13.05;;;7.57;;
23712;SDS011;12035;49.978;8.298;2023-04-06T11:46:51;14.40;;;7.30;;
23712;SDS011;12035;49.978;8.298;2023-04-06T11:51:50;11.95;;;7.40;;
23712;SDS011;12035;49.978;8.298;2023-04-06T11:56:47;11.27;;;7.20;;
23712;SDS011;12035;49.978;8.298;2023-04-06T12:01:45;9.30;;;5.95;;
23712;SDS011;12035;49.978;8.298;2023-04-06T12:06:42;10.60;;;6.75;;
23712;SDS011;12035;49.978;8.298;2023-04-06T12:11:41;12.82;;;6.53;;
23712;SDS011;12035;49.978;8.298;2023-04-06T12:16:38;14.75;;;6.97;;
23712;SDS011;12035;49.978;8.298;2023-04-06T12:21:35;11.57;;;7.05;;
23712;SDS011;12035;49.978;8.298;2023-04-06T12:26:33;12.55;;;7.40;;
23712;SDS011;12035;49.978;8.298;2023-04-06T12:31:31;11.63;;;6.68;;
23712;SDS011;12035;49.978;8.298;2023-04-06T12:36:28;10.25;;;6.97;;
23712;SDS011;12035;49.978;8.298;2023-04-06T12:41:26;10.48;;;6.68;;
23712;SDS011;12035;49.978;8.298;2023-04-06T12:46:23;11.00;;;6.90;;
23712;SDS011;12035;49.978;8.298;2023-04-06T12:51:22;11.43;;;6.22;;
23712;SDS011;12035;49.978;8.298;2023-04-06T12:56:20;11.40;;;6.43;;
23712;SDS011;12035;49.978;8.298;2023-04-06T13:01:17;10.20;;;5.88;;
23712;SDS011;12035;49.978;8.298;2023-04-06T13:06:19;11.27;;;6.53;;
23712;SDS011;12035;49.978;8.298;2023-04-06T13:11:18;12.57;;;7.75;;
23712;SDS011;12035;49.978;8.298;2023-04-06T13:16:18;10.98;;;6.50;;
23712;SDS011;12035;49.978;8.298;2023-04-06T13:21:17;9.15;;;5.80;;
23712;SDS011;12035;49.978;8.298;2023-04-06T13:26:15;9.75;;;5.78;;
23712;SDS011;12035;49.978;8.298;2023-04-06T13:31:14;8.93;;;5.20;;
23712;SDS011;12035;49.978;8.298;2023-04-06T13:36:12;9.52;;;5.72;;
23712;SDS011;12035;49.978;8.298;2023-04-06T13:41:09;8.18;;;5.28;;
23712;SDS011;12035;49.978;8.298;2023-04-06T13:46:08;10.40;;;5.68;;
23712;SDS011;12035;49.978;8.298;2023-04-06T13:51:09;9.63;;;5.60;;
23712;SDS011;12035;49.978;8.298;2023-04-06T13:56:09;9.75;;;5.80;;
23712;SDS011;12035;49.978;8.298;2023-04-06T14:01:07;10.23;;;5.32;;
23712;SDS011;12035;49.978;8.298;2023-04-06T14:06:09;8.73;;;5.38;;
23712;SDS011;12035;49.978;8.298;2023-04-06T14:11:10;8.55;;;4.80;;
23712;SDS011;12035;49.978;8.298;2023-04-06T14:16:09;7.07;;;4.38;;
23712;SDS011;12035;49.978;8.298;2023-04-06T14:21:06;7.63;;;5.03;;
23712;SDS011;12035;49.978;8.298;2023-04-06T14:26:04;9.02;;;4.97;;
23712;SDS011;12035;49.978;8.298;2023-04-06T14:31:11;6.60;;;4.38;;
23712;SDS011;12035;49.978;8.298;2023-04-06T14:36:10;9.48;;;5.60;;
23712;SDS011;12035;49.978;8.298;2023-04-06T14:41:08;7.82;;;4.40;;
23712;SDS011;12035;49.978;8.298;2023-04-06T14:46:12;5.88;;;3.28;;
23712;SDS011;12035;49.978;8.298;2023-04-06T14:51:10;4.82;;;3.08;;
23712;SDS011;12035;49.978;8.298;2023-04-06T14:56:08;6.55;;;3.40;;
23712;SDS011;12035;49.978;8.298;2023-04-06T15:01:05;6.88;;;3.63;;
23712;SDS011;12035;49.978;8.298;2023-04-06T15:06:05;7.68;;;4.50;;
23712;SDS011;12035;49.978;8.298;2023-04-06T15:11:10;7.53;;;4.13;;
23712;SDS011;12035;49.978;8.298;2023-04-06T15:16:08;8.63;;;5.13;;
23712;SDS011;12035;49.978;8.298;2023-04-06T15:21:07;6.88;;;4.15;;
23712;SDS011;12035;49.978;8.298;2023-04-06T15:26:04;8.23;;;4.30;;
23712;SDS011;12035;49.978;8.298;2023-04-06T15:31:02;8.55;;;4.75;;
23712;SDS011;12035;49.978;8.298;2023-04-06T15:36:03;8.57;;;4.90;;
23712;SDS011;12035;49.978;8.298;2023-04-06T15:41:18;8.02;;;4.70;;
23712;SDS011;12035;49.978;8.298;2023-04-06T15:46:15;6.05;;;3.38;;
23712;SDS011;12035;49.978;8.298;2023-04-06T15:51:14;7.30;;;4.03;;
23712;SDS011;12035;49.978;8.298;2023-04-06T15:56:12;6.18;;;3.58;;
23712;SDS011;12035;49.978;8.298;2023-04-06T16:01:13;5.65;;;2.90;;
23712;SDS011;12035;49.978;8.298;2023-04-06T16:06:12;6.05;;;3.50;;
23712;SDS011;12035;49.978;8.298;2023-04-06T16:11:11;5.32;;;3.05;;
23712;SDS011;12035;49.978;8.298;2023-04-06T16:16:08;5.70;;;3.08;;
23712;SDS011;12035;49.978;8.298;2023-04-06T16:21:05;3.58;;;2.17;;
23712;SDS011;12035;49.978;8.298;2023-04-06T16:26:12;5.30;;;2.45;;
23712;SDS011;12035;49.978;8.298;2023-04-06T16:31:18;4.20;;;2.55;;
23712;SDS011;12035;49.978;8.298;2023-04-06T16:36:22;3.45;;;2.30;;
23712;SDS011;12035;49.978;8.298;2023-04-06T16:41:19;4.90;;;2.22;;
23712;SDS011;12035;49.978;8.298;2023-04-06T16:46:16;5.88;;;2.35;;
23712;SDS011;12035;49.978;8.298;2023-04-06T16:51:13;5.40;;;2.92;;
23712;SDS011;12035;49.978;8.298;2023-04-06T16:56:14;5.50;;;2.92;;
23712;SDS011;12035;49.978;8.298;2023-04-06T17:01:16;4.65;;;2.42;;
23712;SDS011;12035;49.978;8.298;2023-04-06T17:06:15;4.97;;;2.67;;
23712;SDS011;12035;49.978;8.298;2023-04-06T17:11:14;4.60;;;2.85;;
23712;SDS011;12035;49.978;8.298;2023-04-06T17:16:12;5.72;;;2.83;;
23712;SDS011;12035;49.978;8.298;2023-04-06T17:21:09;4.30;;;2.60;;
23712;SDS011;12035;49.978;8.298;2023-04-06T17:26:08;3.83;;;2.30;;
23712;SDS011;12035;49.978;8.298;2023-04-06T17:31:07;5.88;;;2.92;;
23712;SDS011;12035;49.978;8.298;2023-04-06T17:36:07;4.95;;;2.55;;
23712;SDS011;12035;49.978;8.298;2023-04-06T17:41:06;5.10;;;2.53;;
23712;SDS011;12035;49.978;8.298;2023-04-06T17:46:03;6.72;;;2.85;;
23712;SDS011;12035;49.978;8.298;2023-04-06T17:51:02;4.93;;;2.90;;
23712;SDS011;12035;49.978;8.298;2023-04-06T17:56:01;4.75;;;2.47;;
23712;SDS011;12035;49.978;8.298;2023-04-06T18:00:58;5.75;;;2.90;;
23712;SDS011;12035;49.978;8.298;2023-04-06T18:06:09;3.92;;;2.70;;
23712;SDS011;12035;49.978;8.298;2023-04-06T18:11:09;3.70;;;2.42;;
23712;SDS011;12035;49.978;8.298;2023-04-06T18:16:12;6.72;;;3.33;;
23712;SDS011;12035;49.978;8.298;2023-04-06T18:21:12;6.15;;;2.42;;
23712;SDS011;12035;49.978;8.298;2023-04-06T18:26:13;4.82;;;2.78;;
23712;SDS011;12035;49.978;8.298;2023-04-06T18:31:12;4.50;;;2.78;;
23712;SDS011;12035;49.978;8.298;2023-04-06T18:36:09;4.35;;;2.63;;
23712;SDS011;12035;49.978;8.298;2023-04-06T18:41:09;4.43;;;2.38;;
23712;SDS011;12035;49.978;8.298;2023-04-06T18:46:10;3.83;;;2.70;;
23712;SDS011;12035;49.978;8.298;2023-04-06T18:51:08;4.55;;;2.63;;
23712;SDS011;12035;49.978;8.298;2023-04-06T18:56:12;4.53;;;2.80;;
23712;SDS011;12035;49.978;8.298;2023-04-06T19:01:18;4.70;;;3.20;;
23712;SDS011;12035;49.978;8.298;2023-04-06T19:06:16;5.70;;;2.95;;
23712;SDS011;12035;49.978;8.298;2023-04-06T19:11:16;4.53;;;2.85;;
23712;SDS011;12035;49.978;8.298;2023-04-06T19:16:13;4.50;;;2.95;;
23712;SDS011;12035;49.978;8.298;2023-04-06T19:21:14;6.35;;;3.10;;
23712;SDS011;12035;49.978;8.298;2023-04-06T19:26:13;4.22;;;2.90;;
23712;SDS011;12035;49.978;8.298;2023-04-06T19:31:14;6.43;;;3.35;;
23712;SDS011;12035;49.978;8.298;2023-04-06T19:36:13;5.03;;;3.15;;
23712;SDS011;12035;49.978;8.298;2023-04-06T19:41:11;5.53;;;3.30;;
23712;SDS011;12035;49.978;8.298;2023-04-06T19:46:09;5.15;;;3.08;;
23712;SDS011;12035;49.978;8.298;2023-04-06T19:51:08;6.15;;;3.10;;
23712;SDS011;12035;49.978;8.298;2023-04-06T19:56:05;4.28;;;3.20;;
23712;SDS011;12035;49.978;8.298;2023-04-06T20:01:04;6.70;;;3.55;;
23712;SDS011;12035;49.978;8.298;2023-04-06T20:06:03;4.70;;;3.05;;
23712;SDS011;12035;49.978;8.298;2023-04-06T20:11:00;4.93;;;3.28;;
23712;SDS011;12035;49.978;8.298;2023-04-06T20:15:59;5.13;;;3.75;;
23712;SDS011;12035;49.978;8.298;2023-04-06T20:20:56;5.53;;;3.50;;
23712;SDS011;12035;49.978;8.298;2023-04-06T20:25:55;5.55;;;3.83;;
23712;SDS011;12035;49.978;8.298;2023-04-06T20:30:52;5.30;;;3.65;;
23712;SDS011;12035;49.978;8.298;2023-04-06T20:35:54;6.90;;;4.30;;
23712;SDS011;12035;49.978;8.298;2023-04-06T20:40:53;8.43;;;4.10;;
23712;SDS011;12035;49.978;8.298;2023-04-06T20:45:53;5.25;;;3.60;;
23712;SDS011;12035;49.978;8.298;2023-04-06T20:50:54;6.07;;;4.22;;
23712;SDS011;12035;49.978;8.298;2023-04-06T20:55:51;8.48;;;4.90;;
23712;SDS011;12035;49.978;8.298;2023-04-06T21:00:50;6.70;;;4.18;;
23712;SDS011;12035;49.978;8.298;2023-04-06T21:05:50;5.80;;;4.13;;
23712;SDS011;12035;49.978;8.298;2023-04-06T21:10:48;5.53;;;4.07;;
23712;SDS011;12035;49.978;8.298;2023-04-06T21:15:45;6.22;;;4.53;;
23712;SDS011;12035;49.978;8.298;2023-04-06T21:20:44;5.63;;;3.97;;
23712;SDS011;12035;49.978;8.298;2023-04-06T21:25:41;6.55;;;4.70;;
23712;SDS011;12035;49.978;8.298;2023-04-06T21:30:38;6.50;;;4.38;;
23712;SDS011;12035;49.978;8.298;2023-04-06T21:35:36;7.00;;;4.78;;
23712;SDS011;12035;49.978;8.298;2023-04-06T21:40:35;7.05;;;4.72;;
23712;SDS011;12035;49.978;8.298;2023-04-06T21:45:32;6.63;;;4.90;;
23712;SDS011;12035;49.978;8.298;2023-04-06T21:50:29;7.80;;;5.30;;
23712;SDS011;12035;49.978;8.298;2023-04-06T21:55:27;7.53;;;5.13;;
23712;SDS011;12035;49.978;8.298;2023-04-06T22:00:25;9.10;;;5.20;;
23712;SDS011;12035;49.978;8.298;2023-04-06T22:05:22;9.05;;;5.68;;
23712;SDS011;12035;49.978;8.298;2023-04-06T22:10:19;7.85;;;5.68;;
23712;SDS011;12035;49.978;8.298;2023-04-06T22:15:16;8.07;;;5.88;;
23712;SDS011;12035;49.978;8.298;2023-04-06T22:20:15;7.82;;;5.97;;
23712;SDS011;12035;49.978;8.298;2023-04-06T22:25:12;8.68;;;5.65;;
23712;SDS011;12035;49.978;8.298;2023-04-06T22:30:10;8.68;;;5.75;;
23712;SDS011;12035;49.978;8.298;2023-04-06T22:35:08;8.57;;;5.63;;
23712;SDS011;12035;49.978;8.298;2023-04-06T22:40:07;7.70;;;5.40;;
23712;SDS011;12035;49.978;8.298;2023-04-06T22:45:05;9.80;;;6.05;;
23712;SDS011;12035;49.978;8.298;2023-04-06T22:50:04;8.77;;;5.70;;
23712;SDS011;12035;49.978;8.298;2023-04-06T22:55:03;8.40;;;6.22;;
23712;SDS011;12035;49.978;8.298;2023-04-06T23:00:02;9.95;;;6.75;;
23712;SDS011;12035;49.978;8.298;2023-04-06T23:05:00;8.77;;;6.28;;
23712;SDS011;12035;49.978;8.298;2023-04-06T23:09:57;9.88;;;6.53;;
23712;SDS011;12035;49.978;8.298;2023-04-06T23:14:55;10.05;;;7.05;;
23712;SDS011;12035;49.978;8.298;2023-04-06T23:19:53;7.38;;;5.13;;
23712;SDS011;12035;49.978;8.298;2023-04-06T23:24:51;8.40;;;5.85;;
23712;SDS011;12035;49.978;8.298;2023-04-06T23:29:49;9.10;;;6.13;;
23712;SDS011;12035;49.978;8.298;2023-04-06T23:34:46;8.45;;;5.50;;
23712;SDS011;12035;49.978;8.298;2023-04-06T23:39:45;7.55;;;5.53;;
23712;SDS011;12035;49.978;8.298;2023-04-06T23:44:43;10.02;;;6.03;;
23712;SDS011;12035;49.978;8.298;2023-04-06T23:49:40;9.75;;;6.38;;
23712;SDS011;12035;49.978;8.298;2023-04-06T23:59:35;8.60;;;5.63;;
